Gaviota, California
Current Conditions -  °F | °C
As of 8:53 AM on Friday 31 Oct 2014 (Local Time) from KSBA Reporting Station
Overcast Overcast  
Wind Chill: 63°   Ceiling: 2200
Heat Index: 63°   Visibility: 8mi
Dew Point: 57°   Wind: 0mph
Humidity: 81%   Direction: NA
Pressure: 29.96"   Gusts: NA
Location:  34.4816°N, 119.966°W
Report Text: KSBA 311553Z 00000KT 8SM SCT016 BKN022 OVC028 17/14 A2996 RMK AO2 RAB22E37 SLP144 P0000 T01720139
Loading
Personal Weather Stations






























Interactive Weather Map
Tropical Storm Tracking
New forecast layout! Learn more

10-Day Weather Forecast

Advertisements
Track Severe Weather on mobile